createdAt,value
2023-05-22T00:00:28.577Z,19.43
2023-05-22T00:02:56.210Z,20.50
2023-05-22T00:05:23.917Z,17.90
2023-05-22T00:07:51.450Z,17.30
2023-05-22T00:10:21.963Z,18.30
2023-05-22T00:12:49.586Z,17.93
2023-05-22T00:15:17.192Z,19.83
2023-05-22T00:17:44.943Z,17.90
2023-05-22T00:20:12.759Z,15.97
2023-05-22T00:22:40.398Z,16.37
2023-05-22T00:25:08.285Z,17.83
2023-05-22T00:27:36.020Z,16.27
2023-05-22T00:30:03.682Z,15.27
2023-05-22T00:32:31.261Z,14.87
2023-05-22T00:34:58.808Z,16.70
2023-05-22T00:37:26.515Z,14.63
2023-05-22T00:39:54.081Z,14.63
2023-05-22T00:42:21.761Z,14.90
2023-05-22T00:44:49.373Z,14.80
2023-05-22T00:47:17.041Z,14.90
2023-05-22T00:49:46.814Z,16.03
2023-05-22T00:52:15.052Z,15.37
2023-05-22T00:54:42.720Z,14.27
2023-05-22T00:57:10.430Z,13.73
2023-05-22T00:59:38.304Z,13.50
2023-05-22T01:02:06.053Z,12.83
2023-05-22T01:04:33.813Z,13.83
2023-05-22T01:07:01.476Z,13.90
2023-05-22T01:09:29.721Z,14.13
2023-05-22T01:12:06.627Z,15.93
2023-05-22T01:14:55.221Z,13.80
2023-05-22T01:17:43.366Z,13.57
2023-05-22T01:20:31.813Z,13.50
2023-05-22T01:23:11.742Z,13.13
2023-05-22T01:25:48.357Z,13.27
2023-05-22T01:28:15.911Z,14.47
2023-05-22T01:30:43.452Z,13.33
2023-05-22T01:33:13.212Z,13.23
2023-05-22T01:35:41.452Z,14.83
2023-05-22T01:38:09.709Z,14.47
2023-05-22T01:40:37.780Z,14.77
2023-05-22T01:43:05.748Z,15.10
2023-05-22T01:45:33.315Z,14.20
2023-05-22T01:48:01.154Z,14.87
2023-05-22T01:50:28.795Z,14.03
2023-05-22T01:53:05.636Z,16.07
2023-05-22T01:55:35.553Z,15.90
2023-05-22T01:58:03.143Z,14.50
2023-05-22T02:00:31.125Z,15.13
2023-05-22T02:03:01.416Z,18.00
2023-05-22T02:05:30.203Z,16.43
2023-05-22T02:07:58.633Z,16.10
2023-05-22T02:10:27.174Z,17.53
2023-05-22T02:12:54.745Z,17.30
2023-05-22T02:15:22.379Z,17.23
2023-05-22T02:17:50.090Z,17.73
2023-05-22T02:20:17.741Z,17.37
2023-05-22T02:22:46.385Z,20.13
2023-05-22T02:25:14.479Z,18.33
2023-05-22T02:27:42.881Z,20.57
2023-05-22T02:30:10.868Z,19.63
2023-05-22T02:32:39.131Z,19.50
2023-05-22T02:35:09.439Z,24.83
2023-05-22T02:37:37.154Z,21.20
2023-05-22T02:40:05.111Z,21.67
2023-05-22T02:42:32.847Z,21.87
2023-05-22T02:45:00.431Z,22.60
2023-05-22T02:47:28.026Z,22.07
2023-05-22T02:49:55.772Z,23.03
2023-05-22T02:52:23.304Z,25.07
2023-05-22T02:54:50.999Z,23.53
2023-05-22T02:57:18.592Z,27.57
2023-05-22T02:59:46.265Z,27.80
2023-05-22T03:02:13.847Z,25.40
2023-05-22T03:04:41.510Z,28.77
2023-05-22T03:07:09.114Z,27.43
2023-05-22T03:09:36.840Z,29.10
2023-05-22T03:12:04.730Z,29.53
2023-05-22T03:14:32.293Z,30.77
2023-05-22T03:16:59.823Z,31.07
2023-05-22T03:19:27.638Z,30.07
2023-05-22T03:21:55.500Z,29.87
2023-05-22T03:24:23.110Z,28.90
2023-05-22T03:26:50.681Z,31.70
2023-05-22T03:29:18.323Z,31.07
2023-05-22T03:31:45.931Z,33.13
2023-05-22T03:34:16.581Z,33.37
2023-05-22T03:36:44.166Z,33.20
2023-05-22T03:39:11.734Z,31.80
2023-05-22T03:41:39.331Z,34.33
2023-05-22T03:44:06.865Z,32.87
2023-05-22T03:46:34.498Z,37.13
2023-05-22T03:49:02.725Z,37.87
2023-05-22T03:51:31.666Z,38.00
2023-05-22T03:53:59.207Z,39.50
2023-05-22T03:56:26.813Z,34.20
2023-05-22T03:58:54.358Z,36.10
2023-05-22T04:01:21.929Z,32.43
2023-05-22T04:03:49.584Z,36.37
2023-05-22T04:06:17.375Z,38.07
2023-05-22T04:08:44.954Z,37.80
2023-05-22T04:11:12.478Z,37.63
2023-05-22T04:13:40.055Z,42.00
2023-05-22T04:16:07.784Z,42.80
2023-05-22T04:18:35.366Z,38.30
2023-05-22T04:21:02.933Z,41.50
2023-05-22T04:23:30.575Z,44.03
2023-05-22T04:25:58.129Z,44.57
2023-05-22T04:28:25.833Z,42.77
2023-05-22T04:30:53.483Z,46.63
2023-05-22T04:33:21.066Z,45.07
2023-05-22T04:35:48.593Z,46.33
2023-05-22T04:38:16.228Z,49.20
2023-05-22T04:40:43.767Z,46.00
2023-05-22T04:43:11.508Z,43.70
2023-05-22T04:45:39.106Z,41.37
2023-05-22T04:48:06.934Z,44.63
2023-05-22T04:50:34.517Z,44.13
2023-05-22T04:53:02.130Z,42.53
2023-05-22T04:55:29.686Z,44.03
2023-05-22T04:57:57.388Z,40.50
2023-05-22T05:00:25.020Z,40.77
2023-05-22T05:02:52.921Z,39.33
2023-05-22T05:05:20.501Z,40.27
2023-05-22T05:07:50.098Z,37.33
2023-05-22T05:10:18.128Z,39.13
2023-05-22T05:12:45.837Z,41.67
2023-05-22T05:15:13.518Z,41.60
2023-05-22T05:17:42.914Z,42.87
2023-05-22T05:20:10.753Z,42.23
2023-05-22T05:22:38.389Z,41.20
2023-05-22T05:25:06.250Z,44.10
2023-05-22T05:27:34.017Z,41.53
2023-05-22T05:30:01.579Z,36.20
2023-05-22T05:32:29.288Z,37.47
2023-05-22T05:34:56.894Z,37.73
2023-05-22T05:37:24.526Z,41.33
2023-05-22T05:39:52.243Z,35.70
2023-05-22T05:42:20.061Z,39.63
2023-05-22T05:44:47.580Z,39.67
2023-05-22T05:47:15.223Z,36.87
2023-05-22T05:49:42.747Z,38.90
2023-05-22T05:52:10.319Z,39.37
2023-05-22T05:54:37.878Z,41.93
2023-05-22T05:57:05.584Z,38.87
2023-05-22T05:59:33.136Z,39.73
2023-05-22T06:02:00.689Z,40.73
2023-05-22T06:04:28.270Z,40.00
2023-05-22T06:06:55.972Z,36.87
2023-05-22T06:09:23.604Z,39.30
2023-05-22T06:11:51.195Z,35.43
2023-05-22T06:14:18.747Z,37.07
2023-05-22T06:16:46.572Z,36.77
2023-05-22T06:19:15.284Z,39.40
2023-05-22T06:21:43.012Z,39.83
2023-05-22T06:24:10.692Z,40.87
2023-05-22T06:26:38.325Z,44.97
2023-05-22T06:29:05.964Z,43.80
2023-05-22T06:31:33.641Z,47.60
2023-05-22T06:34:01.602Z,47.70
2023-05-22T06:36:29.251Z,48.63
2023-05-22T06:38:56.825Z,44.63
2023-05-22T06:41:24.521Z,50.83
2023-05-22T06:43:52.072Z,48.63
2023-05-22T06:46:19.918Z,50.33
2023-05-22T06:48:47.509Z,49.97
2023-05-22T06:51:15.197Z,50.10
2023-05-22T06:53:42.760Z,54.87
2023-05-22T06:56:10.417Z,43.67
2023-05-22T06:58:38.005Z,45.73
2023-05-22T07:01:05.712Z,45.20
2023-05-22T07:03:33.316Z,49.43
2023-05-22T07:06:01.127Z,47.97
2023-05-22T07:08:30.562Z,46.87
2023-05-22T07:10:58.594Z,43.13
2023-05-22T07:13:26.114Z,46.37
2023-05-22T07:15:53.754Z,45.77
2023-05-22T07:18:21.314Z,47.53
2023-05-22T07:20:49.016Z,46.43
2023-05-22T07:23:16.565Z,45.20
2023-05-22T07:25:44.185Z,42.67
2023-05-22T07:28:11.714Z,40.50
2023-05-22T07:30:39.618Z,43.80
2023-05-22T07:33:07.475Z,44.83
2023-05-22T07:35:35.312Z,44.97
2023-05-22T07:38:02.926Z,42.43
2023-05-22T07:40:30.594Z,44.63
2023-05-22T07:42:58.120Z,45.77
2023-05-22T07:45:25.707Z,41.17
2023-05-22T07:47:54.867Z,42.40
2023-05-22T07:50:24.014Z,40.47
2023-05-22T07:52:51.791Z,43.20
2023-05-22T07:55:22.461Z,42.43
2023-05-22T07:57:50.057Z,45.87
2023-05-22T08:00:17.930Z,43.67
2023-05-22T08:02:45.739Z,42.57
2023-05-22T08:05:13.708Z,42.57
2023-05-22T08:07:41.392Z,44.13
2023-05-22T08:10:14.661Z,43.27
2023-05-22T08:12:42.361Z,42.03
2023-05-22T08:15:10.280Z,41.10
2023-05-22T08:17:38.449Z,40.27
2023-05-22T08:20:06.501Z,41.13
2023-05-22T08:22:34.244Z,40.97
2023-05-22T08:25:01.959Z,40.00
2023-05-22T08:27:29.604Z,42.40
2023-05-22T08:29:57.147Z,47.80
2023-05-22T08:32:24.887Z,44.73
2023-05-22T08:34:52.525Z,44.97
2023-05-22T08:37:20.125Z,40.73
2023-05-22T08:39:47.770Z,39.40
2023-05-22T08:42:15.476Z,45.00
2023-05-22T08:44:43.169Z,46.20
2023-05-22T08:47:11.362Z,45.57
2023-05-22T08:49:39.909Z,44.83
2023-05-22T08:52:14.215Z,47.77
2023-05-22T08:54:42.393Z,47.90
2023-05-22T08:57:10.236Z,44.03
2023-05-22T08:59:39.578Z,44.50
2023-05-22T09:02:07.731Z,47.27
2023-05-22T09:04:35.646Z,47.40
2023-05-22T09:07:03.237Z,45.30
2023-05-22T09:09:30.892Z,48.90
2023-05-22T09:11:58.862Z,43.33
2023-05-22T09:14:26.523Z,43.43
2023-05-22T09:16:54.175Z,40.47
2023-05-22T09:19:21.863Z,46.50
2023-05-22T09:21:49.447Z,40.47
2023-05-22T09:24:17.163Z,41.37
2023-05-22T09:26:44.742Z,41.13
2023-05-22T09:29:12.343Z,42.70
2023-05-22T09:31:43.854Z,42.70
2023-05-22T09:34:12.171Z,42.23
2023-05-22T09:36:39.734Z,45.00
2023-05-22T09:39:07.699Z,43.13
2023-05-22T09:41:36.305Z,45.03
2023-05-22T09:44:07.908Z,50.00
2023-05-22T09:46:40.676Z,44.03
2023-05-22T09:49:08.354Z,43.47
2023-05-22T09:51:36.913Z,46.43
2023-05-22T09:54:04.724Z,48.97
2023-05-22T09:56:39.211Z,44.07
2023-05-22T09:59:09.967Z,48.67
2023-05-22T10:01:39.115Z,49.90
2023-05-22T10:04:07.027Z,42.50
2023-05-22T10:06:34.806Z,49.23
2023-05-22T10:09:07.648Z,48.10
2023-05-22T10:11:35.936Z,50.00
2023-05-22T10:14:04.446Z,45.57
2023-05-22T10:16:32.132Z,45.63
2023-05-22T10:19:00.914Z,54.57
2023-05-22T10:21:30.410Z,51.77
2023-05-22T10:23:58.812Z,47.83
2023-05-22T10:26:26.686Z,48.00
2023-05-22T10:28:58.718Z,48.10
2023-05-22T10:31:45.036Z,47.70
2023-05-22T10:34:18.575Z,47.43
2023-05-22T10:37:09.519Z,45.33
2023-05-22T10:39:47.011Z,45.07
2023-05-22T10:42:14.858Z,49.50
2023-05-22T10:44:42.473Z,44.47
2023-05-22T10:47:10.713Z,45.63
2023-05-22T10:49:38.636Z,46.37
2023-05-22T10:52:08.807Z,44.83
2023-05-22T10:54:46.341Z,43.23
2023-05-22T10:57:17.534Z,48.97
2023-05-22T10:59:47.666Z,46.40
2023-05-22T11:02:27.696Z,45.80
2023-05-22T11:04:55.331Z,43.60
2023-05-22T11:07:23.297Z,46.67
2023-05-22T11:10:00.798Z,50.90
2023-05-22T11:12:28.768Z,45.80
2023-05-22T11:15:00.720Z,48.47
2023-05-22T11:17:29.203Z,48.37
2023-05-22T11:20:00.022Z,50.93
2023-05-22T11:22:50.784Z,46.17
2023-05-22T11:25:19.038Z,41.27
2023-05-22T11:27:49.463Z,45.50
2023-05-22T11:30:17.627Z,45.33
2023-05-22T11:32:46.303Z,45.47
2023-05-22T11:35:21.533Z,44.97
2023-05-22T11:37:51.522Z,41.90
2023-05-22T11:40:20.459Z,43.80
2023-05-22T11:42:48.457Z,48.23
2023-05-22T11:45:16.379Z,45.47
2023-05-22T11:47:44.609Z,41.80
2023-05-22T11:50:13.488Z,41.63
2023-05-22T11:52:45.002Z,45.27
2023-05-22T11:55:12.599Z,40.63
2023-05-22T11:57:40.225Z,46.67
2023-05-22T12:00:09.009Z,45.40
2023-05-22T12:02:36.829Z,50.27
2023-05-22T12:05:04.673Z,47.70
2023-05-22T12:07:32.256Z,47.53
2023-05-22T12:09:59.913Z,46.73
2023-05-22T12:12:27.599Z,46.20
2023-05-22T12:14:55.213Z,44.10
2023-05-22T12:17:23.418Z,49.40
2023-05-22T12:19:51.049Z,45.37
2023-05-22T12:22:23.146Z,52.00
2023-05-22T12:24:52.682Z,49.27
2023-05-22T12:27:20.275Z,48.27
2023-05-22T12:29:47.982Z,51.03
2023-05-22T12:32:15.657Z,53.03
2023-05-22T12:34:44.184Z,46.03
2023-05-22T12:37:21.642Z,47.63
2023-05-22T12:39:59.395Z,53.13
2023-05-22T12:42:27.406Z,55.93
2023-05-22T12:44:55.571Z,47.40
2023-05-22T12:47:23.885Z,51.73
2023-05-22T12:49:51.656Z,51.20
2023-05-22T12:52:19.342Z,50.27
2023-05-22T12:54:47.078Z,57.83
2023-05-22T12:57:14.671Z,50.63
2023-05-22T12:59:42.239Z,54.77
2023-05-22T13:02:10.543Z,54.47
2023-05-22T13:04:38.225Z,55.17
2023-05-22T13:07:11.408Z,59.13
2023-05-22T13:09:39.020Z,53.47
2023-05-22T13:12:06.799Z,52.33
2023-05-22T13:14:34.412Z,52.23
2023-05-22T13:17:01.952Z,54.77
2023-05-22T13:19:29.621Z,56.33
2023-05-22T13:21:57.249Z,59.00
2023-05-22T13:24:24.940Z,58.10
2023-05-22T13:26:52.550Z,55.60
2023-05-22T13:29:20.182Z,56.67
2023-05-22T13:31:47.796Z,52.67
2023-05-22T13:34:15.630Z,55.63
2023-05-22T13:36:43.389Z,51.23
2023-05-22T13:39:11.107Z,52.80
2023-05-22T13:41:38.723Z,59.03
2023-05-22T13:44:06.407Z,51.50
2023-05-22T13:46:34.502Z,53.90
2023-05-22T13:49:02.217Z,56.57
2023-05-22T13:51:29.816Z,53.67
2023-05-22T13:53:57.431Z,53.60
2023-05-22T13:56:25.086Z,54.47
2023-05-22T13:58:52.649Z,60.10
2023-05-22T14:01:20.206Z,60.03
2023-05-22T14:03:47.887Z,61.63
2023-05-22T14:06:15.546Z,59.30
2023-05-22T14:08:43.172Z,65.23
2023-05-22T14:11:10.760Z,62.80
2023-05-22T14:13:38.862Z,60.37
2023-05-22T14:16:06.486Z,64.07
2023-05-22T14:18:34.062Z,64.20
2023-05-22T14:21:04.554Z,64.97
2023-05-22T14:23:32.525Z,61.47
2023-05-22T14:26:00.126Z,63.07
2023-05-22T14:28:30.767Z,65.77
2023-05-22T14:30:58.489Z,62.73
2023-05-22T14:33:26.079Z,61.17
2023-05-22T14:35:53.684Z,66.10
2023-05-22T14:38:21.303Z,62.10
2023-05-22T14:40:48.955Z,68.90
2023-05-22T14:43:16.531Z,62.23
2023-05-22T14:45:44.376Z,66.33
2023-05-22T14:48:12.028Z,64.53
2023-05-22T14:50:39.647Z,67.37
2023-05-22T14:53:07.222Z,57.23
2023-05-22T14:55:34.800Z,69.87
2023-05-22T14:58:02.442Z,64.10
2023-05-22T15:00:30.127Z,64.90
2023-05-22T15:02:57.722Z,58.37
2023-05-22T15:05:25.541Z,59.60
2023-05-22T15:07:53.388Z,60.27
2023-05-22T15:10:20.992Z,60.83
2023-05-22T15:12:48.528Z,52.83
2023-05-22T15:15:16.174Z,53.63
2023-05-22T15:17:43.799Z,51.57
2023-05-22T15:20:11.843Z,53.30
2023-05-22T15:22:39.810Z,53.63
2023-05-22T15:25:08.613Z,50.83
2023-05-22T15:27:36.385Z,53.50
2023-05-22T15:30:04.674Z,44.27
2023-05-22T15:32:33.024Z,47.53
2023-05-22T15:35:01.044Z,45.53
2023-05-22T15:37:32.230Z,44.60
2023-05-22T15:40:03.703Z,41.27
2023-05-22T15:42:31.438Z,43.53
2023-05-22T15:44:59.776Z,41.87
2023-05-22T15:47:27.543Z,40.23
2023-05-22T15:49:55.207Z,42.83
2023-05-22T15:52:22.776Z,38.63
2023-05-22T15:54:50.470Z,37.63
2023-05-22T15:57:18.133Z,42.27
2023-05-22T15:59:48.692Z,39.17
2023-05-22T16:02:16.385Z,37.90
2023-05-22T16:04:44.013Z,38.83
2023-05-22T16:07:11.621Z,37.07
2023-05-22T16:09:39.158Z,35.70
2023-05-22T16:12:06.934Z,34.03
2023-05-22T16:14:34.487Z,33.10
2023-05-22T16:17:02.057Z,33.07
2023-05-22T16:19:29.763Z,36.90
2023-05-22T16:21:57.557Z,33.23
2023-05-22T16:24:25.128Z,31.47
2023-05-22T16:26:52.827Z,32.83
2023-05-22T16:29:21.095Z,32.97
2023-05-22T16:31:48.827Z,34.57
2023-05-22T16:34:16.469Z,35.20
2023-05-22T16:36:44.261Z,34.80
2023-05-22T16:39:11.935Z,31.57
2023-05-22T16:41:39.587Z,29.77
2023-05-22T16:44:07.255Z,31.67
2023-05-22T16:46:34.972Z,17.53
2023-05-22T16:49:02.613Z,12.27
2023-05-22T16:51:30.211Z,12.67
2023-05-22T16:53:57.752Z,11.70
2023-05-22T16:56:25.386Z,11.90
2023-05-22T16:58:52.965Z,13.13
2023-05-22T17:01:20.652Z,11.63
2023-05-22T17:03:48.370Z,14.67
2023-05-22T17:06:17.027Z,13.97
2023-05-22T17:08:45.982Z,13.23
2023-05-22T17:11:13.597Z,12.57
2023-05-22T17:13:41.261Z,12.70
2023-05-22T17:16:08.868Z,17.63
2023-05-22T17:18:36.601Z,13.63
2023-05-22T17:21:04.226Z,13.07
2023-05-22T17:23:31.904Z,11.83
2023-05-22T17:25:59.494Z,10.93
2023-05-22T17:28:27.086Z,10.50
2023-05-22T17:30:54.669Z,10.30
2023-05-22T17:33:22.354Z,9.77
2023-05-22T17:35:49.932Z,10.40
2023-05-22T17:38:17.667Z,10.43
2023-05-22T17:40:46.268Z,9.53
2023-05-22T17:43:14.135Z,9.73
2023-05-22T17:45:42.206Z,10.17
2023-05-22T17:48:10.859Z,10.13
2023-05-22T17:50:39.596Z,9.70
2023-05-22T17:53:07.456Z,11.63
2023-05-22T17:55:35.002Z,11.07
2023-05-22T17:58:02.861Z,10.23
2023-05-22T18:00:30.497Z,11.57
2023-05-22T18:02:58.287Z,13.17
2023-05-22T18:05:26.001Z,12.27
2023-05-22T18:07:53.812Z,11.30
2023-05-22T18:10:23.918Z,10.03
2023-05-22T18:12:51.881Z,11.53
2023-05-22T18:15:19.785Z,13.60
2023-05-22T18:17:47.491Z,12.13
2023-05-22T18:20:15.157Z,13.83
2023-05-22T18:22:43.255Z,12.53
2023-05-22T18:25:11.062Z,13.23
2023-05-22T18:27:38.868Z,13.97
2023-05-22T18:30:06.831Z,14.53
2023-05-22T18:32:34.602Z,15.20
2023-05-22T18:35:02.182Z,15.13
2023-05-22T18:37:31.035Z,15.13
2023-05-22T18:39:58.638Z,16.87
2023-05-22T18:42:26.327Z,17.03
2023-05-22T18:44:54.026Z,17.03
2023-05-22T18:47:21.820Z,15.53
2023-05-22T18:49:49.376Z,16.13
2023-05-22T18:52:16.959Z,17.33
2023-05-22T18:54:44.549Z,16.13
2023-05-22T18:57:12.792Z,17.37
2023-05-22T18:59:40.324Z,17.67
2023-05-22T19:02:08.063Z,20.53
2023-05-22T19:04:35.629Z,17.47
2023-05-22T19:07:03.343Z,18.03
2023-05-22T19:09:30.927Z,18.63
2023-05-22T19:11:58.564Z,17.70
2023-05-22T19:14:26.178Z,20.23
2023-05-22T19:16:53.839Z,17.47
2023-05-22T19:19:22.542Z,19.13
2023-05-22T19:21:50.301Z,17.40
2023-05-22T19:24:17.893Z,20.73
2023-05-22T19:26:45.564Z,19.23
2023-05-22T19:29:13.131Z,17.73
2023-05-22T19:31:40.765Z,19.00
2023-05-22T19:34:08.436Z,18.53
2023-05-22T19:36:36.186Z,16.27
2023-05-22T19:39:03.820Z,15.17
2023-05-22T19:41:31.439Z,13.30
2023-05-22T19:43:59.028Z,10.23
2023-05-22T19:46:26.780Z,8.93
2023-05-22T19:48:54.421Z,7.80
2023-05-22T19:51:22.065Z,9.63
2023-05-22T19:53:49.599Z,6.53
2023-05-22T19:56:17.388Z,7.23
2023-05-22T19:58:45.064Z,6.43
2023-05-22T20:01:12.718Z,7.03
2023-05-22T20:03:40.365Z,7.57
2023-05-22T20:06:08.048Z,6.87
2023-05-22T20:08:35.945Z,5.87
2023-05-22T20:11:04.065Z,5.30
2023-05-22T20:13:34.308Z,5.50
2023-05-22T20:16:02.419Z,5.57
2023-05-22T20:18:30.452Z,7.50
2023-05-22T20:20:58.541Z,5.43
2023-05-22T20:23:26.098Z,5.47
2023-05-22T20:25:53.668Z,5.30
2023-05-22T20:28:21.239Z,6.10
2023-05-22T20:30:50.125Z,5.67
2023-05-22T20:33:17.850Z,5.70
2023-05-22T20:35:45.622Z,5.87
2023-05-22T20:38:13.188Z,6.70
2023-05-22T20:40:41.245Z,5.63
2023-05-22T20:43:09.019Z,8.23
2023-05-22T20:45:36.660Z,5.30
2023-05-22T20:48:04.300Z,6.63
2023-05-22T20:50:31.959Z,6.23
2023-05-22T20:52:59.469Z,7.23
2023-05-22T20:55:27.152Z,7.13
2023-05-22T20:57:54.686Z,6.30
2023-05-22T21:00:22.331Z,8.10
2023-05-22T21:02:52.161Z,8.93
2023-05-22T21:05:19.742Z,6.17
2023-05-22T21:07:47.342Z,8.27
2023-05-22T21:10:15.056Z,8.80
2023-05-22T21:12:42.585Z,6.83
2023-05-22T21:15:10.506Z,7.27
2023-05-22T21:17:38.060Z,6.77
2023-05-22T21:20:05.988Z,7.97
2023-05-22T21:22:33.524Z,7.37
2023-05-22T21:25:01.124Z,7.57
2023-05-22T21:27:28.693Z,10.80
2023-05-22T21:29:57.536Z,10.00
2023-05-22T21:32:25.116Z,7.33
2023-05-22T21:34:52.736Z,7.23
2023-05-22T21:37:20.300Z,7.67
2023-05-22T21:39:47.894Z,7.73
2023-05-22T21:42:16.306Z,9.77
2023-05-22T21:44:43.981Z,10.33
2023-05-22T21:47:11.642Z,7.47
2023-05-22T21:49:39.917Z,8.00
2023-05-22T21:52:07.621Z,9.83
2023-05-22T21:54:35.281Z,9.23
2023-05-22T21:57:04.918Z,10.23
2023-05-22T21:59:32.572Z,8.37
2023-05-22T22:02:00.265Z,10.03
2023-05-22T22:04:27.884Z,9.53
2023-05-22T22:06:55.422Z,11.03
2023-05-22T22:09:23.008Z,7.47
2023-05-22T22:11:50.538Z,11.03
2023-05-22T22:14:18.170Z,10.27
2023-05-22T22:16:45.774Z,11.17
2023-05-22T22:19:13.453Z,7.37
2023-05-22T22:21:41.229Z,8.70
2023-05-22T22:24:08.860Z,7.90
2023-05-22T22:26:36.432Z,8.57
2023-05-22T22:29:04.026Z,9.13
2023-05-22T22:31:31.544Z,9.77
2023-05-22T22:33:59.207Z,8.47
2023-05-22T22:36:26.750Z,9.37
2023-05-22T22:38:54.418Z,8.57
2023-05-22T22:41:21.943Z,10.63
2023-05-22T22:43:49.570Z,8.43
2023-05-22T22:46:17.197Z,9.90
2023-05-22T22:48:44.815Z,9.43
2023-05-22T22:51:12.316Z,13.10
2023-05-22T22:53:40.021Z,10.13
2023-05-22T22:56:07.577Z,9.60
2023-05-22T22:58:35.208Z,9.73
2023-05-22T23:01:02.932Z,9.17
2023-05-22T23:03:30.510Z,9.50
2023-05-22T23:05:58.072Z,9.17
2023-05-22T23:08:25.720Z,9.10
2023-05-22T23:10:53.277Z,9.50
2023-05-22T23:13:21.092Z,9.37
2023-05-22T23:15:48.763Z,9.90
2023-05-22T23:18:16.444Z,10.20
2023-05-22T23:20:44.053Z,11.00
2023-05-22T23:23:11.680Z,12.50
2023-05-22T23:25:39.464Z,13.47
2023-05-22T23:28:09.071Z,11.03
2023-05-22T23:30:36.620Z,13.27
2023-05-22T23:33:04.242Z,12.53
2023-05-22T23:35:31.906Z,13.67
2023-05-22T23:37:59.474Z,13.40
2023-05-22T23:40:27.059Z,13.77
2023-05-22T23:42:54.694Z,13.80
2023-05-22T23:45:22.209Z,15.93
2023-05-22T23:47:49.903Z,14.80
2023-05-22T23:50:17.569Z,15.23
2023-05-22T23:52:47.323Z,13.77
2023-05-22T23:55:14.916Z,14.50
2023-05-22T23:57:42.495Z,13.87
